sensor_id;sensor_type;location;lat;lon;timestamp;temperature;humidity
26037;DHT22;13810;48.376;10.944;2023-05-10T00:00:20;13.90;99.90
26037;DHT22;13810;48.376;10.944;2023-05-10T00:00:53;13.90;99.90
26037;DHT22;13810;48.376;10.944;2023-05-10T00:01:23;13.90;99.90
26037;DHT22;13810;48.376;10.944;2023-05-10T00:01:54;13.90;99.90
26037;DHT22;13810;48.376;10.944;2023-05-10T00:02:25;13.90;99.90
26037;DHT22;13810;48.376;10.944;2023-05-10T00:02:55;13.90;99.90
26037;DHT22;13810;48.376;10.944;2023-05-10T00:03:26;13.90;99.90
26037;DHT22;13810;48.376;10.944;2023-05-10T00:03:57;13.90;99.90
26037;DHT22;13810;48.376;10.944;2023-05-10T00:04:27;13.90;99.90
26037;DHT22;13810;48.376;10.944;2023-05-10T00:04:58;13.90;99.90
26037;DHT22;13810;48.376;10.944;2023-05-10T00:05:29;13.90;99.90
26037;DHT22;13810;48.376;10.944;2023-05-10T00:05:59;13.90;99.90
26037;DHT22;13810;48.376;10.944;2023-05-10T00:06:30;13.90;99.90
26037;DHT22;13810;48.376;10.944;2023-05-10T00:07:01;13.90;99.90
26037;DHT22;13810;48.376;10.944;2023-05-10T00:07:32;13.90;99.90
26037;DHT22;13810;48.376;10.944;2023-05-10T00:08:03;13.90;99.90
26037;DHT22;13810;48.376;10.944;2023-05-10T00:08:34;13.90;99.90
26037;DHT22;13810;48.376;10.944;2023-05-10T00:09:04;13.90;99.90
26037;DHT22;13810;48.376;10.944;2023-05-10T00:09:35;13.90;99.90
26037;DHT22;13810;48.376;10.944;2023-05-10T00:10:06;13.90;99.90
26037;DHT22;13810;48.376;10.944;2023-05-10T00:10:37;13.90;99.90
26037;DHT22;13810;48.376;10.944;2023-05-10T00:11:07;13.90;99.90
26037;DHT22;13810;48.376;10.944;2023-05-10T00:11:38;13.90;99.90
26037;DHT22;13810;48.376;10.944;2023-05-10T00:12:09;13.90;99.90
26037;DHT22;13810;48.376;10.944;2023-05-10T00:12:39;13.90;99.90
26037;DHT22;13810;48.376;10.944;2023-05-10T00:13:10;13.90;99.90
26037;DHT22;13810;48.376;10.944;2023-05-10T00:13:40;13.90;99.90
26037;DHT22;13810;48.376;10.944;2023-05-10T00:14:11;13.90;99.90
26037;DHT22;13810;48.376;10.944;2023-05-10T00:14:42;13.90;99.90
26037;DHT22;13810;48.376;10.944;2023-05-10T00:15:13;13.90;99.90
26037;DHT22;13810;48.376;10.944;2023-05-10T00:15:43;13.90;99.90
26037;DHT22;13810;48.376;10.944;2023-05-10T00:16:14;13.90;99.90
26037;DHT22;13810;48.376;10.944;2023-05-10T00:16:45;13.90;99.90
26037;DHT22;13810;48.376;10.944;2023-05-10T00:17:15;13.90;99.90
26037;DHT22;13810;48.376;10.944;2023-05-10T00:17:46;13.90;99.90
26037;DHT22;13810;48.376;10.944;2023-05-10T00:18:17;13.90;99.90
26037;DHT22;13810;48.376;10.944;2023-05-10T00:18:47;13.90;99.90
26037;DHT22;13810;48.376;10.944;2023-05-10T00:19:18;13.90;99.90
26037;DHT22;13810;48.376;10.944;2023-05-10T00:19:48;13.90;99.90
26037;DHT22;13810;48.376;10.944;2023-05-10T00:20:19;13.90;99.90
26037;DHT22;13810;48.376;10.944;2023-05-10T00:20:50;13.90;99.90
26037;DHT22;13810;48.376;10.944;2023-05-10T00:21:21;13.90;99.90
26037;DHT22;13810;48.376;10.944;2023-05-10T00:21:52;13.90;99.90
26037;DHT22;13810;48.376;10.944;2023-05-10T00:22:22;13.90;99.90
26037;DHT22;13810;48.376;10.944;2023-05-10T00:22:53;13.90;99.90
26037;DHT22;13810;48.376;10.944;2023-05-10T00:23:24;13.90;99.90
26037;DHT22;13810;48.376;10.944;2023-05-10T00:23:54;13.90;99.90
26037;DHT22;13810;48.376;10.944;2023-05-10T00:24:25;13.90;99.90
26037;DHT22;13810;48.376;10.944;2023-05-10T00:24:56;13.90;99.90
26037;DHT22;13810;48.376;10.944;2023-05-10T00:25:26;13.90;99.90
26037;DHT22;13810;48.376;10.944;2023-05-10T00:25:57;13.90;99.90
26037;DHT22;13810;48.376;10.944;2023-05-10T00:26:28;13.90;99.90
26037;DHT22;13810;48.376;10.944;2023-05-10T00:26:58;13.90;99.90
26037;DHT22;13810;48.376;10.944;2023-05-10T00:27:29;13.90;99.90
26037;DHT22;13810;48.376;10.944;2023-05-10T00:27:59;13.90;99.90
26037;DHT22;13810;48.376;10.944;2023-05-10T00:28:31;13.90;99.90
26037;DHT22;13810;48.376;10.944;2023-05-10T00:29:02;13.90;99.90
26037;DHT22;13810;48.376;10.944;2023-05-10T00:29:33;13.90;99.90
26037;DHT22;13810;48.376;10.944;2023-05-10T00:30:04;13.90;99.90
26037;DHT22;13810;48.376;10.944;2023-05-10T00:30:35;13.90;99.90
26037;DHT22;13810;48.376;10.944;2023-05-10T00:31:05;13.90;99.90
26037;DHT22;13810;48.376;10.944;2023-05-10T00:31:36;13.90;99.90
26037;DHT22;13810;48.376;10.944;2023-05-10T00:32:07;13.90;99.90
26037;DHT22;13810;48.376;10.944;2023-05-10T00:32:38;13.90;99.90
26037;DHT22;13810;48.376;10.944;2023-05-10T00:33:08;13.90;99.90
26037;DHT22;13810;48.376;10.944;2023-05-10T00:33:39;13.90;99.90
26037;DHT22;13810;48.376;10.944;2023-05-10T00:34:10;13.90;99.90
26037;DHT22;13810;48.376;10.944;2023-05-10T00:34:41;13.90;99.90
26037;DHT22;13810;48.376;10.944;2023-05-10T00:35:11;13.90;99.90
26037;DHT22;13810;48.376;10.944;2023-05-10T00:35:42;13.90;99.90
26037;DHT22;13810;48.376;10.944;2023-05-10T00:36:13;13.80;99.90
26037;DHT22;13810;48.376;10.944;2023-05-10T00:36:43;13.90;99.90
26037;DHT22;13810;48.376;10.944;2023-05-10T00:37:14;13.90;99.90
26037;DHT22;13810;48.376;10.944;2023-05-10T00:37:45;13.90;99.90
26037;DHT22;13810;48.376;10.944;2023-05-10T00:38:15;13.80;99.90
26037;DHT22;13810;48.376;10.944;2023-05-10T00:38:46;13.90;99.90
26037;DHT22;13810;48.376;10.944;2023-05-10T00:39:16;13.80;99.90
26037;DHT22;13810;48.376;10.944;2023-05-10T00:39:47;13.90;99.90
26037;DHT22;13810;48.376;10.944;2023-05-10T00:40:18;13.80;99.90
26037;DHT22;13810;48.376;10.944;2023-05-10T00:40:48;13.80;99.90
26037;DHT22;13810;48.376;10.944;2023-05-10T00:41:19;13.90;99.90
26037;DHT22;13810;48.376;10.944;2023-05-10T00:41:51;13.90;99.90
26037;DHT22;13810;48.376;10.944;2023-05-10T00:42:21;13.80;99.90
26037;DHT22;13810;48.376;10.944;2023-05-10T00:42:52;13.80;99.90
26037;DHT22;13810;48.376;10.944;2023-05-10T00:43:23;13.80;99.90
26037;DHT22;13810;48.376;10.944;2023-05-10T00:43:53;13.80;99.90
26037;DHT22;13810;48.376;10.944;2023-05-10T00:44:24;13.80;99.90
26037;DHT22;13810;48.376;10.944;2023-05-10T00:44:55;13.80;99.90
26037;DHT22;13810;48.376;10.944;2023-05-10T00:45:26;13.80;99.90
26037;DHT22;13810;48.376;10.944;2023-05-10T00:45:57;13.80;99.90
26037;DHT22;13810;48.376;10.944;2023-05-10T00:46:28;13.80;99.90
26037;DHT22;13810;48.376;10.944;2023-05-10T00:46:59;13.80;99.90
26037;DHT22;13810;48.376;10.944;2023-05-10T00:47:31;13.80;99.90
26037;DHT22;13810;48.376;10.944;2023-05-10T00:48:02;13.80;99.90
26037;DHT22;13810;48.376;10.944;2023-05-10T00:48:34;13.80;99.90
26037;DHT22;13810;48.376;10.944;2023-05-10T00:49:05;13.80;99.90
26037;DHT22;13810;48.376;10.944;2023-05-10T00:49:36;13.80;99.90
26037;DHT22;13810;48.376;10.944;2023-05-10T00:50:07;13.80;99.90
26037;DHT22;13810;48.376;10.944;2023-05-10T00:50:39;13.90;99.90
26037;DHT22;13810;48.376;10.944;2023-05-10T00:51:10;13.80;99.90
26037;DHT22;13810;48.376;10.944;2023-05-10T00:51:41;13.80;99.90
26037;DHT22;13810;48.376;10.944;2023-05-10T00:52:13;13.80;99.90
26037;DHT22;13810;48.376;10.944;2023-05-10T00:52:43;13.80;99.90
26037;DHT22;13810;48.376;10.944;2023-05-10T00:53:16;13.80;99.90
26037;DHT22;13810;48.376;10.944;2023-05-10T00:53:47;13.80;99.90
26037;DHT22;13810;48.376;10.944;2023-05-10T00:54:18;13.80;99.90
26037;DHT22;13810;48.376;10.944;2023-05-10T00:54:51;13.80;99.90
26037;DHT22;13810;48.376;10.944;2023-05-10T00:55:22;13.80;99.90
26037;DHT22;13810;48.376;10.944;2023-05-10T00:55:53;13.80;99.90
26037;DHT22;13810;48.376;10.944;2023-05-10T00:56:24;13.80;99.90
26037;DHT22;13810;48.376;10.944;2023-05-10T00:56:55;13.80;99.90
26037;DHT22;13810;48.376;10.944;2023-05-10T00:57:27;13.80;99.90
26037;DHT22;13810;48.376;10.944;2023-05-10T00:57:58;13.80;99.90
26037;DHT22;13810;48.376;10.944;2023-05-10T00:58:28;13.80;99.90
26037;DHT22;13810;48.376;10.944;2023-05-10T00:59:01;13.80;99.90
26037;DHT22;13810;48.376;10.944;2023-05-10T00:59:32;13.80;99.90
26037;DHT22;13810;48.376;10.944;2023-05-10T01:00:03;13.80;99.90
26037;DHT22;13810;48.376;10.944;2023-05-10T01:00:35;13.80;99.90
26037;DHT22;13810;48.376;10.944;2023-05-10T01:01:08;13.80;99.90
26037;DHT22;13810;48.376;10.944;2023-05-10T01:01:39;13.70;99.90
26037;DHT22;13810;48.376;10.944;2023-05-10T01:02:11;13.80;99.90
26037;DHT22;13810;48.376;10.944;2023-05-10T01:02:42;13.80;99.90
26037;DHT22;13810;48.376;10.944;2023-05-10T01:03:12;13.70;99.90
26037;DHT22;13810;48.376;10.944;2023-05-10T01:03:43;13.70;99.90
26037;DHT22;13810;48.376;10.944;2023-05-10T01:04:15;13.70;99.90
26037;DHT22;13810;48.376;10.944;2023-05-10T01:04:45;13.70;99.90
26037;DHT22;13810;48.376;10.944;2023-05-10T01:05:16;13.70;99.90
26037;DHT22;13810;48.376;10.944;2023-05-10T01:05:47;13.70;99.90
26037;DHT22;13810;48.376;10.944;2023-05-10T01:06:17;13.70;99.90
26037;DHT22;13810;48.376;10.944;2023-05-10T01:06:48;13.70;99.90
26037;DHT22;13810;48.376;10.944;2023-05-10T01:07:18;13.70;99.90
26037;DHT22;13810;48.376;10.944;2023-05-10T01:07:49;13.70;99.90
26037;DHT22;13810;48.376;10.944;2023-05-10T01:08:20;13.70;99.90
26037;DHT22;13810;48.376;10.944;2023-05-10T01:08:51;13.70;99.90
26037;DHT22;13810;48.376;10.944;2023-05-10T01:09:22;13.70;99.90
26037;DHT22;13810;48.376;10.944;2023-05-10T01:09:53;13.70;99.90
26037;DHT22;13810;48.376;10.944;2023-05-10T01:10:24;13.70;99.90
26037;DHT22;13810;48.376;10.944;2023-05-10T01:10:55;13.70;99.90
26037;DHT22;13810;48.376;10.944;2023-05-10T01:11:26;13.70;99.90
26037;DHT22;13810;48.376;10.944;2023-05-10T01:11:57;13.70;99.90
26037;DHT22;13810;48.376;10.944;2023-05-10T01:12:27;13.70;99.90
26037;DHT22;13810;48.376;10.944;2023-05-10T01:12:59;13.70;99.90
26037;DHT22;13810;48.376;10.944;2023-05-10T01:13:35;13.70;99.90
26037;DHT22;13810;48.376;10.944;2023-05-10T01:14:06;13.70;99.90
26037;DHT22;13810;48.376;10.944;2023-05-10T01:14:37;13.70;99.90
26037;DHT22;13810;48.376;10.944;2023-05-10T01:15:09;13.70;99.90
26037;DHT22;13810;48.376;10.944;2023-05-10T01:15:41;13.70;99.90
26037;DHT22;13810;48.376;10.944;2023-05-10T01:16:12;13.70;99.90
26037;DHT22;13810;48.376;10.944;2023-05-10T01:16:44;13.70;99.90
26037;DHT22;13810;48.376;10.944;2023-05-10T01:17:16;13.70;99.90
26037;DHT22;13810;48.376;10.944;2023-05-10T01:17:47;13.70;99.90
26037;DHT22;13810;48.376;10.944;2023-05-10T01:18:20;13.70;99.90
26037;DHT22;13810;48.376;10.944;2023-05-10T01:18:52;13.70;99.90
26037;DHT22;13810;48.376;10.944;2023-05-10T01:19:25;13.70;99.90
26037;DHT22;13810;48.376;10.944;2023-05-10T01:19:57;13.70;99.90
26037;DHT22;13810;48.376;10.944;2023-05-10T01:20:32;13.70;99.90
26037;DHT22;13810;48.376;10.944;2023-05-10T01:24:22;13.70;99.90
26037;DHT22;13810;48.376;10.944;2023-05-10T01:24:26;13.70;99.90
26037;DHT22;13810;48.376;10.944;2023-05-10T01:27:45;13.60;99.90
26037;DHT22;13810;48.376;10.944;2023-05-10T01:30:25;13.60;99.90
26037;DHT22;13810;48.376;10.944;2023-05-10T01:31:22;13.60;99.90
26037;DHT22;13810;48.376;10.944;2023-05-10T01:33:27;13.60;99.90
26037;DHT22;13810;48.376;10.944;2023-05-10T01:34:07;13.60;99.90
26037;DHT22;13810;48.376;10.944;2023-05-10T01:35:06;13.60;99.90
26037;DHT22;13810;48.376;10.944;2023-05-10T01:36:59;13.50;99.90
26037;DHT22;13810;48.376;10.944;2023-05-10T01:37:42;13.50;99.90
26037;DHT22;13810;48.376;10.944;2023-05-10T01:39:21;13.50;99.90
26037;DHT22;13810;48.376;10.944;2023-05-10T01:40:13;13.50;99.90
26037;DHT22;13810;48.376;10.944;2023-05-10T01:40:59;13.50;99.90
26037;DHT22;13810;48.376;10.944;2023-05-10T01:41:36;13.50;99.90
26037;DHT22;13810;48.376;10.944;2023-05-10T01:42:17;13.50;99.90
26037;DHT22;13810;48.376;10.944;2023-05-10T01:42:56;13.50;99.90
26037;DHT22;13810;48.376;10.944;2023-05-10T01:43:37;13.40;99.90
26037;DHT22;13810;48.376;10.944;2023-05-10T01:44:17;13.40;99.90
26037;DHT22;13810;48.376;10.944;2023-05-10T01:45:11;13.40;99.90
26037;DHT22;13810;48.376;10.944;2023-05-10T01:46:05;13.40;99.90
26037;DHT22;13810;48.376;10.944;2023-05-10T01:46:41;13.40;99.90
26037;DHT22;13810;48.376;10.944;2023-05-10T01:47:29;13.40;99.90
26037;DHT22;13810;48.376;10.944;2023-05-10T01:48:06;13.40;99.90
26037;DHT22;13810;48.376;10.944;2023-05-10T01:48:42;13.30;99.90
26037;DHT22;13810;48.376;10.944;2023-05-10T01:49:30;13.40;99.90
26037;DHT22;13810;48.376;10.944;2023-05-10T01:50:03;13.40;99.90
26037;DHT22;13810;48.376;10.944;2023-05-10T01:50:37;13.30;99.90
26037;DHT22;13810;48.376;10.944;2023-05-10T01:51:09;13.30;99.90
26037;DHT22;13810;48.376;10.944;2023-05-10T01:51:50;13.40;99.90
26037;DHT22;13810;48.376;10.944;2023-05-10T01:52:42;13.30;99.90
26037;DHT22;13810;48.376;10.944;2023-05-10T01:53:18;13.40;99.90
26037;DHT22;13810;48.376;10.944;2023-05-10T01:53:53;13.30;99.90
26037;DHT22;13810;48.376;10.944;2023-05-10T01:54:24;13.30;99.90
26037;DHT22;13810;48.376;10.944;2023-05-10T01:55:02;13.30;99.90
26037;DHT22;13810;48.376;10.944;2023-05-10T01:55:47;13.30;99.90
26037;DHT22;13810;48.376;10.944;2023-05-10T01:56:20;13.30;99.90
26037;DHT22;13810;48.376;10.944;2023-05-10T01:56:57;13.30;99.90
26037;DHT22;13810;48.376;10.944;2023-05-10T01:57:34;13.30;99.90
26037;DHT22;13810;48.376;10.944;2023-05-10T01:58:10;13.30;99.90
26037;DHT22;13810;48.376;10.944;2023-05-10T01:58:44;13.30;99.90
26037;DHT22;13810;48.376;10.944;2023-05-10T01:59:19;13.30;99.90
26037;DHT22;13810;48.376;10.944;2023-05-10T01:59:50;13.30;99.90
26037;DHT22;13810;48.376;10.944;2023-05-10T02:00:22;13.30;99.90
26037;DHT22;13810;48.376;10.944;2023-05-10T02:00:54;13.30;99.90
26037;DHT22;13810;48.376;10.944;2023-05-10T02:01:26;13.30;99.90
26037;DHT22;13810;48.376;10.944;2023-05-10T02:01:58;13.30;99.90
26037;DHT22;13810;48.376;10.944;2023-05-10T02:02:35;13.30;99.90
26037;DHT22;13810;48.376;10.944;2023-05-10T02:03:08;13.30;99.90
26037;DHT22;13810;48.376;10.944;2023-05-10T02:03:40;13.30;99.90
26037;DHT22;13810;48.376;10.944;2023-05-10T02:04:15;13.30;99.90
26037;DHT22;13810;48.376;10.944;2023-05-10T02:04:49;13.30;99.90
26037;DHT22;13810;48.376;10.944;2023-05-10T02:05:21;13.30;99.90
26037;DHT22;13810;48.376;10.944;2023-05-10T02:05:54;13.30;99.90
26037;DHT22;13810;48.376;10.944;2023-05-10T02:06:27;13.30;99.90
26037;DHT22;13810;48.376;10.944;2023-05-10T02:08:43;13.30;99.90
26037;DHT22;13810;48.376;10.944;2023-05-10T02:09:20;13.30;99.90
26037;DHT22;13810;48.376;10.944;2023-05-10T02:09:51;13.30;99.90
26037;DHT22;13810;48.376;10.944;2023-05-10T02:10:22;13.30;99.90
26037;DHT22;13810;48.376;10.944;2023-05-10T02:10:55;13.30;99.90
26037;DHT22;13810;48.376;10.944;2023-05-10T02:11:27;13.20;99.90
26037;DHT22;13810;48.376;10.944;2023-05-10T02:12:00;13.30;99.90
26037;DHT22;13810;48.376;10.944;2023-05-10T02:12:36;13.20;99.90
26037;DHT22;13810;48.376;10.944;2023-05-10T02:13:08;13.20;99.90
26037;DHT22;13810;48.376;10.944;2023-05-10T02:13:41;13.20;99.90
26037;DHT22;13810;48.376;10.944;2023-05-10T02:14:14;13.20;99.90
26037;DHT22;13810;48.376;10.944;2023-05-10T02:14:46;13.20;99.90
26037;DHT22;13810;48.376;10.944;2023-05-10T02:15:20;13.20;99.90
26037;DHT22;13810;48.376;10.944;2023-05-10T02:15:53;13.20;99.90
26037;DHT22;13810;48.376;10.944;2023-05-10T02:16:26;13.20;99.90
26037;DHT22;13810;48.376;10.944;2023-05-10T02:16:58;13.20;99.90
26037;DHT22;13810;48.376;10.944;2023-05-10T02:17:34;13.20;99.90
26037;DHT22;13810;48.376;10.944;2023-05-10T02:18:06;13.20;99.90
26037;DHT22;13810;48.376;10.944;2023-05-10T02:18:37;13.20;99.90
26037;DHT22;13810;48.376;10.944;2023-05-10T02:19:10;13.20;99.90
26037;DHT22;13810;48.376;10.944;2023-05-10T02:19:43;13.20;99.90
26037;DHT22;13810;48.376;10.944;2023-05-10T02:20:16;13.20;99.90
26037;DHT22;13810;48.376;10.944;2023-05-10T02:20:47;13.20;99.90
26037;DHT22;13810;48.376;10.944;2023-05-10T02:21:20;13.20;99.90
26037;DHT22;13810;48.376;10.944;2023-05-10T02:21:51;13.20;99.90
26037;DHT22;13810;48.376;10.944;2023-05-10T02:22:22;13.20;99.90
26037;DHT22;13810;48.376;10.944;2023-05-10T02:22:55;13.20;99.90
26037;DHT22;13810;48.376;10.944;2023-05-10T02:23:26;13.20;99.90
26037;DHT22;13810;48.376;10.944;2023-05-10T02:23:59;13.20;99.90
26037;DHT22;13810;48.376;10.944;2023-05-10T02:24:32;13.20;99.90
26037;DHT22;13810;48.376;10.944;2023-05-10T02:25:04;13.20;99.90
26037;DHT22;13810;48.376;10.944;2023-05-10T02:25:36;13.20;99.90
26037;DHT22;13810;48.376;10.944;2023-05-10T02:26:08;13.20;99.90
26037;DHT22;13810;48.376;10.944;2023-05-10T02:26:39;13.20;99.90
26037;DHT22;13810;48.376;10.944;2023-05-10T02:27:11;13.20;99.90
26037;DHT22;13810;48.376;10.944;2023-05-10T02:27:43;13.20;99.90
26037;DHT22;13810;48.376;10.944;2023-05-10T02:28:15;13.20;99.90
26037;DHT22;13810;48.376;10.944;2023-05-10T02:28:47;13.20;99.90
26037;DHT22;13810;48.376;10.944;2023-05-10T02:29:20;13.20;99.90
26037;DHT22;13810;48.376;10.944;2023-05-10T02:29:51;13.20;99.90
26037;DHT22;13810;48.376;10.944;2023-05-10T02:30:23;13.20;99.90
26037;DHT22;13810;48.376;10.944;2023-05-10T02:30:54;13.20;99.90
26037;DHT22;13810;48.376;10.944;2023-05-10T02:31:26;13.20;99.90
26037;DHT22;13810;48.376;10.944;2023-05-10T02:31:57;13.20;99.90
26037;DHT22;13810;48.376;10.944;2023-05-10T02:32:29;13.20;99.90
26037;DHT22;13810;48.376;10.944;2023-05-10T02:33:01;13.20;99.90
26037;DHT22;13810;48.376;10.944;2023-05-10T02:33:35;13.20;99.90
26037;DHT22;13810;48.376;10.944;2023-05-10T02:34:07;13.20;99.90
26037;DHT22;13810;48.376;10.944;2023-05-10T02:34:38;13.20;99.90
26037;DHT22;13810;48.376;10.944;2023-05-10T02:35:09;13.20;99.90
26037;DHT22;13810;48.376;10.944;2023-05-10T02:35:41;13.20;99.90
26037;DHT22;13810;48.376;10.944;2023-05-10T02:36:13;13.20;99.90
26037;DHT22;13810;48.376;10.944;2023-05-10T02:36:43;13.20;99.90
26037;DHT22;13810;48.376;10.944;2023-05-10T02:37:15;13.20;99.90
26037;DHT22;13810;48.376;10.944;2023-05-10T02:37:47;13.10;99.90
26037;DHT22;13810;48.376;10.944;2023-05-10T02:38:20;13.20;99.90
26037;DHT22;13810;48.376;10.944;2023-05-10T02:38:52;13.10;99.90
26037;DHT22;13810;48.376;10.944;2023-05-10T02:39:24;13.10;99.90
26037;DHT22;13810;48.376;10.944;2023-05-10T02:39:57;13.10;99.90
26037;DHT22;13810;48.376;10.944;2023-05-10T02:40:28;13.10;99.90
26037;DHT22;13810;48.376;10.944;2023-05-10T02:41:00;13.10;99.90
26037;DHT22;13810;48.376;10.944;2023-05-10T02:41:32;13.10;99.90
26037;DHT22;13810;48.376;10.944;2023-05-10T02:42:03;13.10;99.90
26037;DHT22;13810;48.376;10.944;2023-05-10T02:42:37;13.10;99.90
26037;DHT22;13810;48.376;10.944;2023-05-10T02:43:13;13.10;99.90
26037;DHT22;13810;48.376;10.944;2023-05-10T02:43:46;13.10;99.90
26037;DHT22;13810;48.376;10.944;2023-05-10T02:44:18;13.10;99.90
26037;DHT22;13810;48.376;10.944;2023-05-10T02:44:52;13.10;99.90
26037;DHT22;13810;48.376;10.944;2023-05-10T02:45:26;13.10;99.90
26037;DHT22;13810;48.376;10.944;2023-05-10T02:45:58;13.10;99.90
26037;DHT22;13810;48.376;10.944;2023-05-10T02:46:29;13.10;99.90
26037;DHT22;13810;48.376;10.944;2023-05-10T02:47:00;13.10;99.90
26037;DHT22;13810;48.376;10.944;2023-05-10T02:47:31;13.10;99.90
26037;DHT22;13810;48.376;10.944;2023-05-10T02:48:02;13.10;99.90
26037;DHT22;13810;48.376;10.944;2023-05-10T02:48:33;13.10;99.90
26037;DHT22;13810;48.376;10.944;2023-05-10T02:49:04;13.10;99.90
26037;DHT22;13810;48.376;10.944;2023-05-10T02:49:34;13.10;99.90
26037;DHT22;13810;48.376;10.944;2023-05-10T02:50:06;13.10;99.90
26037;DHT22;13810;48.376;10.944;2023-05-10T02:50:37;13.10;99.90
26037;DHT22;13810;48.376;10.944;2023-05-10T02:51:12;13.10;99.90
26037;DHT22;13810;48.376;10.944;2023-05-10T02:51:49;13.10;99.90
26037;DHT22;13810;48.376;10.944;2023-05-10T02:52:27;13.10;99.90
26037;DHT22;13810;48.376;10.944;2023-05-10T02:53:15;13.10;99.90
26037;DHT22;13810;48.376;10.944;2023-05-10T02:53:46;13.10;99.90
26037;DHT22;13810;48.376;10.944;2023-05-10T02:54:24;13.10;99.90
26037;DHT22;13810;48.376;10.944;2023-05-10T02:55:01;13.10;99.90
26037;DHT22;13810;48.376;10.944;2023-05-10T02:55:37;13.10;99.90
26037;DHT22;13810;48.376;10.944;2023-05-10T02:56:19;13.10;99.90
26037;DHT22;13810;48.376;10.944;2023-05-10T02:56:56;13.10;99.90
26037;DHT22;13810;48.376;10.944;2023-05-10T02:57:33;13.10;99.90
26037;DHT22;13810;48.376;10.944;2023-05-10T02:58:04;13.10;99.90
26037;DHT22;13810;48.376;10.944;2023-05-10T02:58:35;13.00;99.90
26037;DHT22;13810;48.376;10.944;2023-05-10T02:59:05;13.00;99.90
26037;DHT22;13810;48.376;10.944;2023-05-10T02:59:36;13.00;99.90
26037;DHT22;13810;48.376;10.944;2023-05-10T03:00:07;13.00;99.90
26037;DHT22;13810;48.376;10.944;2023-05-10T03:00:38;13.00;99.90
26037;DHT22;13810;48.376;10.944;2023-05-10T03:01:09;13.00;99.90
26037;DHT22;13810;48.376;10.944;2023-05-10T03:01:40;13.00;99.90
26037;DHT22;13810;48.376;10.944;2023-05-10T03:02:12;13.00;99.90
26037;DHT22;13810;48.376;10.944;2023-05-10T03:02:43;13.00;99.90
26037;DHT22;13810;48.376;10.944;2023-05-10T03:03:14;13.00;99.90
26037;DHT22;13810;48.376;10.944;2023-05-10T03:03:45;13.00;99.90
26037;DHT22;13810;48.376;10.944;2023-05-10T03:04:15;13.00;99.90
26037;DHT22;13810;48.376;10.944;2023-05-10T03:04:46;13.00;99.90
26037;DHT22;13810;48.376;10.944;2023-05-10T03:05:16;13.00;99.90
26037;DHT22;13810;48.376;10.944;2023-05-10T03:05:47;13.00;99.90
26037;DHT22;13810;48.376;10.944;2023-05-10T03:06:18;13.00;99.90
26037;DHT22;13810;48.376;10.944;2023-05-10T03:06:48;13.00;99.90
26037;DHT22;13810;48.376;10.944;2023-05-10T03:07:19;13.00;99.90
26037;DHT22;13810;48.376;10.944;2023-05-10T03:07:52;13.00;99.90
26037;DHT22;13810;48.376;10.944;2023-05-10T03:08:23;13.00;99.90
26037;DHT22;13810;48.376;10.944;2023-05-10T03:08:54;13.00;99.90
26037;DHT22;13810;48.376;10.944;2023-05-10T03:09:25;13.00;99.90
26037;DHT22;13810;48.376;10.944;2023-05-10T03:09:56;13.00;99.90
26037;DHT22;13810;48.376;10.944;2023-05-10T03:10:29;13.00;99.90
26037;DHT22;13810;48.376;10.944;2023-05-10T03:11:31;13.00;99.90
26037;DHT22;13810;48.376;10.944;2023-05-10T03:13:05;13.00;99.90
26037;DHT22;13810;48.376;10.944;2023-05-10T03:14:10;13.00;99.90
26037;DHT22;13810;48.376;10.944;2023-05-10T03:16:14;13.00;99.90
26037;DHT22;13810;48.376;10.944;2023-05-10T03:16:47;13.00;99.90
26037;DHT22;13810;48.376;10.944;2023-05-10T03:17:57;13.00;99.90
26037;DHT22;13810;48.376;10.944;2023-05-10T03:18:56;13.00;99.90
26037;DHT22;13810;48.376;10.944;2023-05-10T03:19:50;13.00;99.90
26037;DHT22;13810;48.376;10.944;2023-05-10T03:20:29;13.00;99.90
26037;DHT22;13810;48.376;10.944;2023-05-10T03:21:05;13.00;99.90
26037;DHT22;13810;48.376;10.944;2023-05-10T03:21:41;13.00;99.90
26037;DHT22;13810;48.376;10.944;2023-05-10T03:22:19;13.00;99.90
26037;DHT22;13810;48.376;10.944;2023-05-10T03:22:55;13.00;99.90
26037;DHT22;13810;48.376;10.944;2023-05-10T03:23:30;13.00;99.90
26037;DHT22;13810;48.376;10.944;2023-05-10T03:24:06;13.00;99.90
26037;DHT22;13810;48.376;10.944;2023-05-10T03:24:39;13.00;99.90
26037;DHT22;13810;48.376;10.944;2023-05-10T03:25:12;12.90;99.90
26037;DHT22;13810;48.376;10.944;2023-05-10T03:25:43;12.90;99.90
26037;DHT22;13810;48.376;10.944;2023-05-10T03:26:17;13.00;99.90
26037;DHT22;13810;48.376;10.944;2023-05-10T03:26:51;12.90;99.90
26037;DHT22;13810;48.376;10.944;2023-05-10T03:27:25;12.90;99.90
26037;DHT22;13810;48.376;10.944;2023-05-10T03:27:57;12.90;99.90
26037;DHT22;13810;48.376;10.944;2023-05-10T03:28:28;12.90;99.90
26037;DHT22;13810;48.376;10.944;2023-05-10T03:29:00;12.90;99.90
26037;DHT22;13810;48.376;10.944;2023-05-10T03:29:31;12.90;99.90
26037;DHT22;13810;48.376;10.944;2023-05-10T03:30:03;12.90;99.90
26037;DHT22;13810;48.376;10.944;2023-05-10T03:30:35;12.90;99.90
26037;DHT22;13810;48.376;10.944;2023-05-10T03:31:06;12.90;99.90
26037;DHT22;13810;48.376;10.944;2023-05-10T03:31:38;13.00;99.90
26037;DHT22;13810;48.376;10.944;2023-05-10T03:32:09;13.00;99.90
26037;DHT22;13810;48.376;10.944;2023-05-10T03:32:40;13.00;99.90
26037;DHT22;13810;48.376;10.944;2023-05-10T03:33:10;13.00;99.90
26037;DHT22;13810;48.376;10.944;2023-05-10T03:33:50;12.90;99.90
26037;DHT22;13810;48.376;10.944;2023-05-10T03:34:24;13.00;99.90
26037;DHT22;13810;48.376;10.944;2023-05-10T03:34:55;13.00;99.90
26037;DHT22;13810;48.376;10.944;2023-05-10T03:35:25;12.90;99.90
26037;DHT22;13810;48.376;10.944;2023-05-10T03:35:56;12.90;99.90
26037;DHT22;13810;48.376;10.944;2023-05-10T03:36:27;13.00;99.90
26037;DHT22;13810;48.376;10.944;2023-05-10T03:36:57;13.00;99.90
26037;DHT22;13810;48.376;10.944;2023-05-10T03:37:28;13.00;99.90
26037;DHT22;13810;48.376;10.944;2023-05-10T03:37:59;12.90;99.90
26037;DHT22;13810;48.376;10.944;2023-05-10T03:38:29;12.90;99.90
26037;DHT22;13810;48.376;10.944;2023-05-10T03:39:00;12.90;99.90
26037;DHT22;13810;48.376;10.944;2023-05-10T03:39:30;13.00;99.90
26037;DHT22;13810;48.376;10.944;2023-05-10T03:40:02;13.00;99.90
26037;DHT22;13810;48.376;10.944;2023-05-10T03:40:33;13.00;99.90
26037;DHT22;13810;48.376;10.944;2023-05-10T03:41:03;13.00;99.90
26037;DHT22;13810;48.376;10.944;2023-05-10T03:41:34;13.00;99.90